Time;durP1;ratioP1;P1;durP2;ratioP2;P2;SDS_P1;SDS_P2;PMS_P1;PMS_P2;Temp;Humidity;BMP_temperature;BMP_pressure;BME280_temperature;BME280_humidity;BME280_pressure;Samples;Min_cycle;Max_cycle;Signal;HPM_P1;HPM_P2
2023/09/05 00:02:02;;;;;;;;;9.67;9.67;;;;;;;;5082947;28;45359;-77
2023/09/05 00:04:28;;;;;;;;;12.00;10.67;;;;;;;;5064429;28;47171;-77
2023/09/05 00:06:53;;;;;;;;;10.00;10.00;;;;;;;;5064199;28;45789;-77
2023/09/05 00:09:18;;;;;;;;;9.33;9.33;;;;;;;;5083035;28;45418;-78
2023/09/05 00:11:47;;;;;;;;;9.67;9.00;;;;;;;;5082884;28;45538;-77
2023/09/05 00:14:12;;;;;;;;;9.33;9.33;;;;;;;;5082398;28;45944;-78
2023/09/05 00:16:38;;;;;;;;;8.00;8.00;;;;;;;;5082683;28;45291;-78
2023/09/05 00:19:03;;;;;;;;;6.00;6.00;;;;;;;;5082564;28;45275;-77
2023/09/05 00:21:29;;;;;;;;;9.67;9.67;;;;;;;;5082564;28;45270;-78
2023/09/05 00:24:14;;;;;;;;;9.67;9.00;;;;;;;;5082499;28;45281;-77
2023/09/05 00:26:39;;;;;;;;;8.25;8.00;;;;;;;;5082211;27;45201;-78
2023/09/05 00:29:05;;;;;;;;;7.33;7.33;;;;;;;;5070905;27;45232;-77
2023/09/05 00:31:30;;;;;;;;;7.33;7.33;;;;;;;;5102922;27;45195;-77
2023/09/05 00:33:55;;;;;;;;;7.33;7.33;;;;;;;;5102761;27;45440;-77
2023/09/05 00:36:20;;;;;;;;;10.33;9.67;;;;;;;;5102876;27;45204;-77
2023/09/05 00:38:47;;;;;;;;;8.00;7.67;;;;;;;;5068297;28;45253;-77
2023/09/05 00:41:15;;;;;;;;;7.33;7.33;;;;;;;;5082232;28;45670;-77
2023/09/05 00:43:41;;;;;;;;;9.00;8.33;;;;;;;;5081847;28;46365;-78
2023/09/05 00:46:06;;;;;;;;;7.67;7.00;;;;;;;;5082170;28;45323;-77
2023/09/05 00:48:32;;;;;;;;;9.25;9.00;;;;;;;;5082434;28;45197;-77
2023/09/05 00:50:57;;;;;;;;;9.00;8.75;;;;;;;;5081743;28;45563;-77
2023/09/05 00:53:24;;;;;;;;;6.75;6.75;;;;;;;;5082072;28;45381;-77
2023/09/05 00:55:49;;;;;;;;;8.00;8.00;;;;;;;;5082076;28;45271;-77
2023/09/05 00:58:14;;;;;;;;;10.67;10.00;;;;;;;;5082185;28;45268;-77
2023/09/05 01:00:39;;;;;;;;;9.00;9.00;;;;;;;;5081985;28;45376;-78
2023/09/05 01:03:04;;;;;;;;;6.33;6.33;;;;;;;;5081948;28;46331;-78
2023/09/05 01:05:33;;;;;;;;;9.00;7.33;;;;;;;;5081620;28;45366;-77
2023/09/05 01:08:07;;;;;;;;;8.33;8.33;;;;;;;;5063798;28;45266;-77
2023/09/05 01:10:47;;;;;;;;;8.67;8.00;;;;;;;;5081345;28;45312;-77
2023/09/05 01:13:17;;;;;;;;;9.67;8.00;;;;;;;;5081649;28;45435;-77
2023/09/05 01:15:42;;;;;;;;;10.67;9.67;;;;;;;;5081664;28;45385;-77
2023/09/05 01:18:07;;;;;;;;;10.00;9.00;;;;;;;;5081817;28;45406;-78
2023/09/05 01:20:45;;;;;;;;;8.67;8.67;;;;;;;;5081379;28;45329;-77
2023/09/05 01:23:17;;;;;;;;;9.00;8.00;;;;;;;;5063267;28;47368;-77
2023/09/05 01:25:42;;;;;;;;;8.00;8.00;;;;;;;;5081420;28;45342;-77
2023/09/05 01:28:11;;;;;;;;;8.00;8.00;;;;;;;;5081618;28;45363;-77
2023/09/05 01:30:38;;;;;;;;;10.75;10.25;;;;;;;;5100920;27;45155;-77
2023/09/05 01:33:03;;;;;;;;;9.00;8.33;;;;;;;;5101946;27;45338;-77
2023/09/05 01:35:28;;;;;;;;;10.00;9.67;;;;;;;;5101696;27;45220;-78
2023/09/05 01:37:54;;;;;;;;;9.00;9.00;;;;;;;;5101856;27;45289;-77
2023/09/05 01:40:19;;;;;;;;;8.00;8.00;;;;;;;;5101904;27;45165;-77
2023/09/05 01:42:44;;;;;;;;;11.00;9.00;;;;;;;;5101454;27;46379;-77
2023/09/05 01:45:09;;;;;;;;;8.50;8.50;;;;;;;;5101874;27;45153;-77
2023/09/05 01:47:35;;;;;;;;;9.00;9.00;;;;;;;;5101823;27;45228;-77
2023/09/05 01:50:00;;;;;;;;;9.00;9.00;;;;;;;;5101401;27;45203;-78
2023/09/05 01:52:25;;;;;;;;;7.00;6.33;;;;;;;;5101561;27;45319;-77
2023/09/05 01:54:50;;;;;;;;;10.00;9.00;;;;;;;;5083158;27;45225;-77
2023/09/05 01:57:16;;;;;;;;;9.00;8.67;;;;;;;;5101484;27;45541;-77
2023/09/05 01:59:41;;;;;;;;;9.00;9.00;;;;;;;;5101420;27;45310;-78
2023/09/05 02:02:07;;;;;;;;;7.33;7.33;;;;;;;;5100839;27;45353;-77
2023/09/05 02:04:32;;;;;;;;;8.33;8.33;;;;;;;;5082838;27;45425;-77
2023/09/05 02:06:57;;;;;;;;;9.67;8.33;;;;;;;;5101567;27;45365;-77
2023/09/05 02:09:22;;;;;;;;;10.00;10.00;;;;;;;;5101271;27;45576;-77
2023/09/05 02:11:47;;;;;;;;;8.33;8.33;;;;;;;;5101462;27;46081;-79
2023/09/05 02:14:12;;;;;;;;;9.67;9.00;;;;;;;;5101286;27;45371;-77
2023/09/05 02:16:38;;;;;;;;;9.75;9.75;;;;;;;;5101354;27;45386;-77
2023/09/05 02:19:03;;;;;;;;;9.00;9.00;;;;;;;;5100890;27;45260;-77
2023/09/05 02:21:28;;;;;;;;;10.00;10.00;;;;;;;;5082542;27;48302;-77
2023/09/05 02:23:53;;;;;;;;;9.67;9.67;;;;;;;;5101125;27;45322;-77
2023/09/05 02:26:19;;;;;;;;;9.33;9.33;;;;;;;;5101402;27;45310;-77
2023/09/05 02:28:44;;;;;;;;;9.00;9.00;;;;;;;;5097013;27;45303;-77
2023/09/05 02:31:10;;;;;;;;;9.67;9.67;;;;;;;;5062131;28;47596;-77
2023/09/05 02:33:37;;;;;;;;;13.00;12.00;;;;;;;;5080513;28;45398;-77
2023/09/05 02:36:18;;;;;;;;;9.67;9.67;;;;;;;;5062007;28;45330;-77
2023/09/05 02:38:43;;;;;;;;;10.00;9.00;;;;;;;;5080253;28;45342;-77
2023/09/05 02:41:12;;;;;;;;;8.67;8.67;;;;;;;;5080314;28;46329;-78
2023/09/05 02:43:38;;;;;;;;;10.67;10.67;;;;;;;;5080256;28;45216;-79
2023/09/05 02:46:03;;;;;;;;;12.00;9.67;;;;;;;;5080529;28;45228;-78
2023/09/05 02:48:28;;;;;;;;;11.00;10.00;;;;;;;;5061934;28;47531;-77
2023/09/05 02:51:03;;;;;;;;;9.00;8.00;;;;;;;;5079923;28;45361;-77
2023/09/05 02:53:28;;;;;;;;;10.00;10.00;;;;;;;;5080353;28;45267;-77
2023/09/05 02:55:54;;;;;;;;;10.67;9.67;;;;;;;;5080091;28;45251;-79
2023/09/05 02:58:19;;;;;;;;;10.00;9.33;;;;;;;;5080179;28;45375;-79
2023/09/05 03:00:47;;;;;;;;;10.33;9.33;;;;;;;;5080136;28;46153;-79
2023/09/05 03:03:13;;;;;;;;;8.33;8.33;;;;;;;;5080211;28;45342;-78
2023/09/05 03:05:38;;;;;;;;;9.67;9.67;;;;;;;;5071732;28;45363;-79
2023/09/05 03:08:03;;;;;;;;;9.33;9.00;;;;;;;;5059725;28;45391;-79
2023/09/05 03:10:28;;;;;;;;;10.00;10.00;;;;;;;;5041495;28;48346;-80
2023/09/05 03:12:53;;;;;;;;;10.00;8.67;;;;;;;;5040554;28;45339;-79
2023/09/05 03:15:20;;;;;;;;;9.00;9.00;;;;;;;;5059537;28;45311;-79
2023/09/05 03:17:45;;;;;;;;;10.33;9.00;;;;;;;;5059661;28;45305;-79
2023/09/05 03:20:11;;;;;;;;;9.67;8.67;;;;;;;;5041085;28;47928;-79
2023/09/05 03:22:37;;;;;;;;;11.00;11.00;;;;;;;;5041175;28;45351;-79
2023/09/05 03:25:02;;;;;;;;;10.33;8.33;;;;;;;;5059599;28;45184;-80
2023/09/05 03:27:27;;;;;;;;;11.00;10.00;;;;;;;;5041195;28;46265;-79
2023/09/05 03:29:52;;;;;;;;;9.00;9.00;;;;;;;;5086086;27;45387;-79
2023/09/05 03:32:18;;;;;;;;;9.00;9.00;;;;;;;;5100142;27;45208;-79
2023/09/05 03:34:48;;;;;;;;;12.67;10.67;;;;;;;;5099973;27;45282;-79
2023/09/05 03:37:13;;;;;;;;;11.33;11.33;;;;;;;;5100017;27;45397;-79
2023/09/05 03:39:38;;;;;;;;;10.33;10.00;;;;;;;;5099778;27;45434;-79
2023/09/05 03:42:04;;;;;;;;;9.00;9.00;;;;;;;;5081175;27;45322;-79
2023/09/05 03:44:29;;;;;;;;;11.00;11.00;;;;;;;;5100141;27;45316;-79
2023/09/05 03:46:54;;;;;;;;;8.67;8.67;;;;;;;;5099948;27;45251;-79
2023/09/05 03:49:19;;;;;;;;;11.00;11.00;;;;;;;;5094675;27;46128;-79
2023/09/05 03:51:44;;;;;;;;;10.00;9.67;;;;;;;;5079052;28;45350;-79
2023/09/05 03:54:12;;;;;;;;;7.67;7.33;;;;;;;;5060860;28;45517;-79
2023/09/05 03:56:37;;;;;;;;;9.33;9.33;;;;;;;;5078671;28;45434;-79
2023/09/05 03:59:03;;;;;;;;;12.00;10.33;;;;;;;;5078649;28;45349;-79
2023/09/05 04:01:28;;;;;;;;;10.00;8.00;;;;;;;;5079110;28;45201;-79
2023/09/05 04:03:53;;;;;;;;;11.33;10.33;;;;;;;;5078772;28;45869;-79
2023/09/05 04:06:18;;;;;;;;;10.00;9.00;;;;;;;;5079171;28;45466;-79
2023/09/05 04:08:43;;;;;;;;;9.67;9.67;;;;;;;;5079194;28;46049;-79
2023/09/05 04:11:09;;;;;;;;;12.67;12.33;;;;;;;;5079299;28;45247;-79
2023/09/05 04:13:34;;;;;;;;;11.00;10.00;;;;;;;;5079426;28;45288;-79
2023/09/05 04:16:05;;;;;;;;;9.33;9.33;;;;;;;;5078995;28;45306;-79
2023/09/05 04:18:31;;;;;;;;;12.00;10.67;;;;;;;;5079022;28;45361;-79
2023/09/05 04:20:57;;;;;;;;;9.00;9.00;;;;;;;;5060416;28;45335;-79
2023/09/05 04:23:23;;;;;;;;;8.67;8.00;;;;;;;;5079255;28;45226;-79
2023/09/05 04:25:54;;;;;;;;;9.00;9.00;;;;;;;;5063165;28;46046;-79
2023/09/05 04:28:19;;;;;;;;;8.33;8.33;;;;;;;;5082800;27;46354;-79
2023/09/05 04:30:44;;;;;;;;;10.00;8.67;;;;;;;;5053967;28;45305;-80
2023/09/05 04:33:11;;;;;;;;;7.33;7.33;;;;;;;;5063709;28;45477;-80
2023/09/05 04:35:36;;;;;;;;;10.00;9.67;;;;;;;;5061757;28;45433;-80
2023/09/05 04:38:02;;;;;;;;;8.00;7.00;;;;;;;;5061786;28;46257;-80
2023/09/05 04:40:27;;;;;;;;;9.67;8.67;;;;;;;;5062081;28;45276;-80
2023/09/05 04:42:52;;;;;;;;;9.00;9.00;;;;;;;;5061969;28;45287;-77
2023/09/05 04:45:17;;;;;;;;;9.00;9.00;;;;;;;;5061883;28;45201;-78
2023/09/05 04:47:42;;;;;;;;;8.33;7.67;;;;;;;;5061915;28;46107;-79
2023/09/05 04:50:10;;;;;;;;;8.00;8.00;;;;;;;;5061722;28;45422;-79
2023/09/05 04:52:35;;;;;;;;;9.33;8.33;;;;;;;;5061868;28;45401;-77
2023/09/05 04:55:01;;;;;;;;;6.67;6.67;;;;;;;;5061694;28;45220;-78
2023/09/05 04:57:26;;;;;;;;;6.67;6.67;;;;;;;;5043385;28;47595;-78
2023/09/05 04:59:57;;;;;;;;;10.00;10.00;;;;;;;;5043473;28;45410;-76
2023/09/05 05:02:23;;;;;;;;;7.33;7.33;;;;;;;;5043543;28;45245;-77
2023/09/05 05:04:48;;;;;;;;;10.33;10.33;;;;;;;;5043329;28;46124;-77
2023/09/05 05:07:14;;;;;;;;;9.67;9.67;;;;;;;;5061346;28;45235;-78
2023/09/05 05:09:39;;;;;;;;;9.00;8.00;;;;;;;;5061641;28;45154;-79
2023/09/05 05:12:05;;;;;;;;;8.67;8.33;;;;;;;;5043464;28;45266;-77
2023/09/05 05:14:30;;;;;;;;;7.00;6.67;;;;;;;;5060754;28;45330;-78
2023/09/05 05:16:55;;;;;;;;;8.33;8.33;;;;;;;;5061427;28;45415;-78
2023/09/05 05:19:21;;;;;;;;;8.67;8.67;;;;;;;;5043186;28;45710;-79
2023/09/05 05:21:46;;;;;;;;;7.33;7.33;;;;;;;;5043201;28;45567;-74
2023/09/05 05:24:12;;;;;;;;;8.00;7.67;;;;;;;;5043370;28;45958;-77
2023/09/05 05:26:37;;;;;;;;;7.00;6.67;;;;;;;;5061301;28;45837;-77
2023/09/05 05:29:02;;;;;;;;;9.67;9.33;;;;;;;;5073881;27;45460;-77
2023/09/05 05:31:28;;;;;;;;;10.00;10.00;;;;;;;;5101995;27;45329;-77
2023/09/05 05:33:54;;;;;;;;;9.00;9.00;;;;;;;;5100391;27;45365;-77
2023/09/05 05:36:19;;;;;;;;;6.33;6.33;;;;;;;;5080328;28;45313;-74
2023/09/05 05:38:44;;;;;;;;;9.33;9.33;;;;;;;;5062986;28;46160;-77
2023/09/05 05:41:09;;;;;;;;;8.67;7.33;;;;;;;;5063059;28;45354;-77
2023/09/05 05:43:35;;;;;;;;;9.00;8.00;;;;;;;;5081179;28;45583;-77
2023/09/05 05:46:00;;;;;;;;;9.33;9.33;;;;;;;;5081122;28;45356;-77
2023/09/05 05:48:25;;;;;;;;;7.67;6.00;;;;;;;;5063156;28;46077;-75
2023/09/05 05:50:51;;;;;;;;;9.67;8.00;;;;;;;;5062907;28;45468;-77
2023/09/05 05:53:17;;;;;;;;;10.00;9.00;;;;;;;;5062932;28;45993;-77
2023/09/05 05:55:42;;;;;;;;;9.00;8.00;;;;;;;;5062660;28;45986;-79
2023/09/05 05:58:07;;;;;;;;;10.33;10.00;;;;;;;;5081092;28;45363;-77
2023/09/05 06:00:32;;;;;;;;;11.67;10.33;;;;;;;;5063095;28;45307;-78
2023/09/05 06:02:58;;;;;;;;;9.00;8.00;;;;;;;;5081001;28;45263;-78
2023/09/05 06:05:23;;;;;;;;;10.50;10.50;;;;;;;;5080629;28;45196;-78
2023/09/05 06:07:49;;;;;;;;;9.00;7.67;;;;;;;;5081032;28;45235;-77
2023/09/05 06:10:15;;;;;;;;;10.00;10.00;;;;;;;;5062726;28;45291;-78
2023/09/05 06:12:40;;;;;;;;;7.67;7.33;;;;;;;;5080547;28;45429;-77
2023/09/05 06:15:05;;;;;;;;;10.67;10.67;;;;;;;;5080754;28;46101;-77
2023/09/05 06:17:30;;;;;;;;;10.00;9.00;;;;;;;;5080886;28;45208;-78
2023/09/05 06:19:56;;;;;;;;;9.67;7.67;;;;;;;;5062438;28;45299;-78
2023/09/05 06:22:21;;;;;;;;;10.33;10.00;;;;;;;;5080531;28;45372;-78
2023/09/05 06:24:46;;;;;;;;;10.33;10.33;;;;;;;;5080750;28;45460;-77
2023/09/05 06:27:11;;;;;;;;;9.00;9.00;;;;;;;;5080732;28;45398;-78
2023/09/05 06:29:37;;;;;;;;;8.00;8.00;;;;;;;;5073536;27;45500;-78
2023/09/05 06:32:02;;;;;;;;;10.00;9.00;;;;;;;;5100937;27;45328;-78
2023/09/05 06:34:27;;;;;;;;;9.00;9.00;;;;;;;;5082157;27;48205;-77
2023/09/05 06:36:53;;;;;;;;;12.33;11.67;;;;;;;;5100918;27;45385;-77
2023/09/05 06:39:18;;;;;;;;;9.00;9.00;;;;;;;;5101018;27;45312;-77
2023/09/05 06:41:43;;;;;;;;;8.67;8.67;;;;;;;;5100855;27;45445;-78
2023/09/05 06:44:08;;;;;;;;;10.67;10.00;;;;;;;;5100703;27;46272;-78
2023/09/05 06:46:35;;;;;;;;;6.33;5.00;;;;;;;;5100928;27;45316;-78
2023/09/05 06:49:00;;;;;;;;;8.67;8.00;;;;;;;;5082145;27;45481;-78
2023/09/05 06:51:25;;;;;;;;;9.67;7.67;;;;;;;;5100589;27;45532;-78
2023/09/05 06:53:51;;;;;;;;;8.00;8.00;;;;;;;;5100613;27;46302;-78
2023/09/05 06:56:17;;;;;;;;;8.67;8.67;;;;;;;;5082112;27;45961;-78
2023/09/05 06:58:43;;;;;;;;;11.00;9.33;;;;;;;;5100432;27;45221;-78
2023/09/05 07:01:08;;;;;;;;;12.00;10.67;;;;;;;;5100463;27;45196;-78
2023/09/05 07:03:33;;;;;;;;;9.33;8.00;;;;;;;;5100410;27;46150;-78
2023/09/05 07:06:01;;;;;;;;;10.67;9.67;;;;;;;;5100303;27;45491;-78
2023/09/05 07:08:26;;;;;;;;;10.33;9.33;;;;;;;;5100472;27;45219;-75
2023/09/05 07:10:51;;;;;;;;;8.67;8.67;;;;;;;;5100106;27;45363;-76
2023/09/05 07:13:16;;;;;;;;;8.33;7.67;;;;;;;;5100453;27;45519;-76
2023/09/05 07:15:43;;;;;;;;;7.00;7.00;;;;;;;;5093970;27;45338;-78
2023/09/05 07:18:08;;;;;;;;;11.00;11.00;;;;;;;;5079874;28;45617;-77
2023/09/05 07:20:34;;;;;;;;;9.00;9.00;;;;;;;;5079383;28;45303;-75
2023/09/05 07:22:59;;;;;;;;;7.00;7.00;;;;;;;;5079787;28;45362;-77
2023/09/05 07:25:24;;;;;;;;;8.67;8.67;;;;;;;;5079807;28;45312;-77
2023/09/05 07:27:49;;;;;;;;;8.67;8.67;;;;;;;;5061822;28;45543;-77
2023/09/05 07:30:16;;;;;;;;;7.33;7.33;;;;;;;;5096246;27;45408;-76
2023/09/05 07:32:41;;;;;;;;;10.00;9.00;;;;;;;;5100038;27;46880;-77
2023/09/05 07:35:07;;;;;;;;;11.00;10.00;;;;;;;;5099824;27;45259;-74
2023/09/05 07:37:32;;;;;;;;;8.00;8.00;;;;;;;;5100193;27;45203;-73
2023/09/05 07:39:57;;;;;;;;;9.33;9.33;;;;;;;;5100014;27;45196;-76
2023/09/05 07:42:22;;;;;;;;;9.33;9.33;;;;;;;;5099890;27;45715;-76
2023/09/05 07:44:47;;;;;;;;;10.00;8.67;;;;;;;;5100137;27;45184;-76
2023/09/05 07:47:13;;;;;;;;;12.67;10.33;;;;;;;;5100136;27;45187;-74
2023/09/05 07:49:39;;;;;;;;;8.67;8.67;;;;;;;;5099689;27;45173;-74
2023/09/05 07:52:04;;;;;;;;;9.33;8.33;;;;;;;;5081450;27;48121;-76
2023/09/05 07:54:30;;;;;;;;;9.00;9.00;;;;;;;;5081288;27;45254;-74
2023/09/05 07:56:56;;;;;;;;;8.00;8.00;;;;;;;;5099781;27;45287;-77
2023/09/05 07:59:23;;;;;;;;;10.00;10.00;;;;;;;;5081879;27;45455;-77
2023/09/05 08:01:48;;;;;;;;;8.00;8.00;;;;;;;;5103240;27;47023;-74
2023/09/05 08:04:13;;;;;;;;;9.00;9.00;;;;;;;;5103261;27;45306;-76
2023/09/05 08:06:39;;;;;;;;;9.67;9.67;;;;;;;;5103374;27;45401;-77
2023/09/05 08:09:04;;;;;;;;;9.67;9.67;;;;;;;;5103253;27;45333;-74
2023/09/05 08:11:29;;;;;;;;;10.67;9.67;;;;;;;;5103199;27;45766;-77
2023/09/05 08:13:54;;;;;;;;;7.00;7.00;;;;;;;;5103370;27;45877;-76
2023/09/05 08:16:20;;;;;;;;;10.00;10.00;;;;;;;;5103477;27;45898;-75
2023/09/05 08:18:45;;;;;;;;;7.50;7.50;;;;;;;;5084331;27;46192;-77
2023/09/05 08:21:10;;;;;;;;;9.75;8.75;;;;;;;;5103038;27;46382;-75
2023/09/05 08:23:35;;;;;;;;;9.00;9.00;;;;;;;;5102950;27;45351;-75
2023/09/05 08:26:00;;;;;;;;;8.33;8.33;;;;;;;;5103265;27;45460;-75
2023/09/05 08:28:32;;;;;;;;;10.00;10.00;;;;;;;;5101272;27;45369;-75
2023/09/05 08:31:02;;;;;;;;;10.67;10.67;;;;;;;;5082439;28;45375;-78
2023/09/05 08:33:28;;;;;;;;;10.00;10.00;;;;;;;;5064126;28;45290;-77
2023/09/05 08:35:54;;;;;;;;;5.33;5.33;;;;;;;;5082569;28;45464;-74
2023/09/05 08:38:19;;;;;;;;;8.67;7.00;;;;;;;;5063891;28;46074;-74
2023/09/05 08:40:48;;;;;;;;;10.00;10.00;;;;;;;;5082227;28;45827;-77
2023/09/05 08:43:15;;;;;;;;;9.67;9.67;;;;;;;;5082036;28;45379;-74
2023/09/05 08:45:43;;;;;;;;;9.00;9.00;;;;;;;;5078848;28;45360;-77
2023/09/05 08:48:08;;;;;;;;;8.33;8.33;;;;;;;;5070452;28;45221;-77
2023/09/05 08:50:35;;;;;;;;;9.67;9.33;;;;;;;;5072177;28;45350;-77
2023/09/05 08:53:04;;;;;;;;;8.33;8.00;;;;;;;;5071278;28;45467;-76
2023/09/05 08:55:30;;;;;;;;;8.00;8.00;;;;;;;;5070270;28;45324;-76
2023/09/05 08:57:57;;;;;;;;;8.67;8.67;;;;;;;;5072132;28;45339;-77
2023/09/05 09:00:24;;;;;;;;;10.00;10.00;;;;;;;;5053203;28;47251;-75
2023/09/05 09:02:49;;;;;;;;;8.00;8.00;;;;;;;;5064510;28;45254;-74
2023/09/05 09:05:14;;;;;;;;;8.67;8.67;;;;;;;;5069053;28;45511;-73
2023/09/05 09:07:39;;;;;;;;;8.33;8.33;;;;;;;;5071972;28;45544;-73
2023/09/05 09:10:18;;;;;;;;;8.00;8.00;;;;;;;;5070163;28;45454;-74
2023/09/05 09:12:43;;;;;;;;;9.67;9.67;;;;;;;;5069102;28;45367;-74
2023/09/05 09:15:09;;;;;;;;;8.33;8.33;;;;;;;;5062432;28;45493;-73
2023/09/05 09:17:35;;;;;;;;;9.50;9.50;;;;;;;;5042216;28;47233;-76
2023/09/05 09:20:02;;;;;;;;;9.00;9.00;;;;;;;;5060361;28;46262;-74
2023/09/05 09:22:28;;;;;;;;;8.00;8.00;;;;;;;;5062906;28;46065;-77
2023/09/05 09:24:53;;;;;;;;;13.67;13.00;;;;;;;;5073018;28;45422;-77
2023/09/05 09:27:22;;;;;;;;;8.67;8.67;;;;;;;;5062822;28;47327;-78
2023/09/05 09:29:52;;;;;;;;;10.00;10.00;;;;;;;;5073015;27;46070;-76
2023/09/05 09:32:19;;;;;;;;;10.00;10.00;;;;;;;;5059167;28;45567;-76
2023/09/05 09:34:44;;;;;;;;;7.33;7.33;;;;;;;;5041762;28;45383;-78
2023/09/05 09:37:09;;;;;;;;;10.00;10.00;;;;;;;;5070269;28;45334;-78
2023/09/05 09:39:35;;;;;;;;;10.75;8.75;;;;;;;;5064527;28;45931;-78
2023/09/05 09:42:00;;;;;;;;;12.67;12.00;;;;;;;;5073319;28;45158;-78
2023/09/05 09:44:28;;;;;;;;;11.67;11.33;;;;;;;;5081343;28;45290;-79
2023/09/05 09:46:53;;;;;;;;;9.50;9.00;;;;;;;;5081184;28;45398;-78
2023/09/05 09:49:19;;;;;;;;;10.75;8.75;;;;;;;;5079422;28;45340;-78
2023/09/05 09:51:45;;;;;;;;;12.00;9.00;;;;;;;;5081060;28;45568;-77
2023/09/05 09:54:13;;;;;;;;;9.75;9.75;;;;;;;;5080826;28;45444;-78
2023/09/05 09:56:40;;;;;;;;;12.00;12.00;;;;;;;;5060930;28;47416;-79
2023/09/05 09:59:06;;;;;;;;;10.00;10.00;;;;;;;;5057276;28;48281;-78
2023/09/05 10:01:31;;;;;;;;;10.50;10.00;;;;;;;;5080497;28;45424;-77
2023/09/05 10:03:57;;;;;;;;;8.25;7.75;;;;;;;;5080556;28;45493;-77
2023/09/05 10:06:23;;;;;;;;;10.00;10.00;;;;;;;;5062595;28;46149;-76
2023/09/05 10:08:49;;;;;;;;;9.00;8.75;;;;;;;;5080924;28;46066;-78
2023/09/05 10:11:16;;;;;;;;;11.67;11.00;;;;;;;;5062455;28;45387;-78
2023/09/05 10:13:42;;;;;;;;;10.67;10.33;;;;;;;;5079895;28;45260;-78
2023/09/05 10:16:08;;;;;;;;;10.00;10.00;;;;;;;;5080592;28;45482;-77
2023/09/05 10:18:38;;;;;;;;;9.00;9.00;;;;;;;;5080392;28;46195;-76
2023/09/05 10:21:03;;;;;;;;;10.33;10.33;;;;;;;;5080556;28;45370;-77
2023/09/05 10:23:33;;;;;;;;;10.25;10.25;;;;;;;;5061939;28;45406;-75
2023/09/05 10:26:03;;;;;;;;;10.33;10.33;;;;;;;;5080457;28;45221;-75
2023/09/05 10:28:28;;;;;;;;;8.67;8.67;;;;;;;;5081769;27;46624;-76
2023/09/05 10:30:54;;;;;;;;;9.67;9.67;;;;;;;;5100870;27;45386;-76
2023/09/05 10:33:31;;;;;;;;;10.33;10.33;;;;;;;;5100890;27;45358;-76
2023/09/05 10:35:56;;;;;;;;;9.75;8.50;;;;;;;;5100740;27;45307;-77
2023/09/05 10:38:21;;;;;;;;;10.75;10.75;;;;;;;;5100649;27;45401;-77
2023/09/05 10:40:46;;;;;;;;;11.33;10.00;;;;;;;;5100753;27;45374;-76
2023/09/05 10:43:22;;;;;;;;;9.00;9.00;;;;;;;;5101102;27;45318;-77
2023/09/05 10:45:55;;;;;;;;;10.50;10.50;;;;;;;;5100777;27;45267;-77
2023/09/05 10:48:37;;;;;;;;;9.75;9.75;;;;;;;;5062984;28;47399;-80
2023/09/05 10:51:14;;;;;;;;;6.75;6.75;;;;;;;;5068210;28;45539;-80
2023/09/05 10:53:39;;;;;;;;;10.00;10.00;;;;;;;;5071082;28;45569;-79
2023/09/05 10:56:05;;;;;;;;;11.75;10.00;;;;;;;;5065720;28;45376;-80
2023/09/05 10:58:42;;;;;;;;;9.00;9.00;;;;;;;;5066402;28;46013;-80
2023/09/05 11:01:37;;;;;;;;;9.00;9.00;;;;;;;;5071638;28;45409;-79
2023/09/05 11:04:10;;;;;;;;;9.75;8.75;;;;;;;;5068347;28;45716;-84
2023/09/05 11:06:35;;;;;;;;;9.00;9.00;;;;;;;;5067170;28;46401;-78
2023/09/05 11:09:04;;;;;;;;;10.00;10.00;;;;;;;;5068025;28;46198;-79
2023/09/05 11:11:29;;;;;;;;;10.50;10.50;;;;;;;;5050758;28;45426;-77
2023/09/05 11:13:56;;;;;;;;;8.00;8.00;;;;;;;;5066722;27;45424;-79
2023/09/05 11:16:22;;;;;;;;;10.25;9.25;;;;;;;;5054616;28;45468;-79
2023/09/05 11:18:54;;;;;;;;;8.50;8.50;;;;;;;;5071687;27;45478;-79
2023/09/05 11:21:22;;;;;;;;;10.25;10.25;;;;;;;;5069413;27;45315;-79
2023/09/05 11:23:54;;;;;;;;;9.00;9.00;;;;;;;;5067238;27;45430;-81
2023/09/05 11:26:20;;;;;;;;;9.75;6.75;;;;;;;;5060307;27;45455;-83
2023/09/05 11:28:48;;;;;;;;;8.50;8.50;;;;;;;;5070845;27;45661;-81
2023/09/05 11:31:14;;;;;;;;;7.00;7.00;;;;;;;;5054596;28;45815;-81
2023/09/05 11:33:39;;;;;;;;;9.50;9.00;;;;;;;;5068512;28;45974;-81
2023/09/05 11:36:05;;;;;;;;;9.00;9.00;;;;;;;;5070928;28;45520;-81
2023/09/05 11:38:43;;;;;;;;;9.25;9.25;;;;;;;;5064560;28;48375;-81
2023/09/05 11:41:09;;;;;;;;;9.25;8.75;;;;;;;;5082277;28;45369;-83
2023/09/05 11:43:35;;;;;;;;;7.75;7.75;;;;;;;;5082706;28;45637;-81
2023/09/05 11:46:00;;;;;;;;;10.00;8.50;;;;;;;;5082653;28;45411;-82
2023/09/05 11:48:28;;;;;;;;;10.25;9.25;;;;;;;;5056400;28;47396;-82
2023/09/05 11:50:53;;;;;;;;;7.00;7.00;;;;;;;;5069503;27;45716;-82
2023/09/05 11:53:19;;;;;;;;;6.25;5.75;;;;;;;;5072985;27;45367;-84
2023/09/05 11:55:46;;;;;;;;;7.00;5.25;;;;;;;;5058682;28;45986;-83
2023/09/05 11:58:14;;;;;;;;;6.00;6.00;;;;;;;;5071206;27;47075;-84
2023/09/05 12:00:44;;;;;;;;;7.50;7.50;;;;;;;;5075192;28;45346;-82
2023/09/05 12:03:09;;;;;;;;;6.75;6.75;;;;;;;;5058848;28;45537;-83
2023/09/05 12:05:37;;;;;;;;;6.75;6.75;;;;;;;;5079291;28;45415;-85
2023/09/05 12:08:06;;;;;;;;;7.75;7.75;;;;;;;;5048523;28;48554;-83
2023/09/05 12:10:42;;;;;;;;;7.75;7.75;;;;;;;;5079866;28;45544;-83
2023/09/05 12:13:08;;;;;;;;;8.00;8.00;;;;;;;;5068450;28;45771;-82
2023/09/05 12:15:34;;;;;;;;;6.75;6.50;;;;;;;;5062662;28;45347;-85
2023/09/05 12:18:00;;;;;;;;;5.50;5.50;;;;;;;;5044904;28;47781;-82
2023/09/05 12:20:26;;;;;;;;;7.00;7.00;;;;;;;;5058103;28;46058;-83
2023/09/05 12:22:51;;;;;;;;;7.25;5.75;;;;;;;;5047043;28;46067;-84
2023/09/05 12:25:17;;;;;;;;;8.25;8.25;;;;;;;;5060617;28;45613;-82
2023/09/05 12:27:43;;;;;;;;;9.50;9.50;;;;;;;;5044425;28;48089;-86
2023/09/05 12:30:22;;;;;;;;;6.25;6.25;;;;;;;;5094821;27;45316;-85
2023/09/05 12:32:47;;;;;;;;;9.50;9.00;;;;;;;;5104449;27;45396;-83
2023/09/05 12:35:12;;;;;;;;;7.75;6.75;;;;;;;;5092852;27;45323;-83
2023/09/05 12:37:38;;;;;;;;;7.75;7.75;;;;;;;;5045921;28;47315;-84
2023/09/05 12:40:06;;;;;;;;;7.25;7.25;;;;;;;;5078787;28;45447;-85
2023/09/05 12:42:31;;;;;;;;;8.00;8.00;;;;;;;;5082691;28;45394;-84
2023/09/05 12:44:56;;;;;;;;;8.00;8.00;;;;;;;;5081531;28;45325;-84
2023/09/05 12:47:21;;;;;;;;;8.00;7.50;;;;;;;;5064304;28;47011;-83
2023/09/05 12:49:47;;;;;;;;;8.00;8.00;;;;;;;;5064586;28;45928;-83
2023/09/05 12:52:12;;;;;;;;;8.00;8.00;;;;;;;;5081486;28;45228;-84
2023/09/05 12:54:37;;;;;;;;;7.25;7.25;;;;;;;;5081999;28;45287;-82
2023/09/05 12:57:05;;;;;;;;;9.00;9.00;;;;;;;;5081695;28;45340;-83
2023/09/05 12:59:30;;;;;;;;;9.75;7.75;;;;;;;;5078651;28;45426;-85
2023/09/05 13:01:56;;;;;;;;;8.75;7.50;;;;;;;;5053776;28;45292;-82
2023/09/05 13:04:21;;;;;;;;;8.00;8.00;;;;;;;;5063962;28;45470;-83
2023/09/05 13:06:47;;;;;;;;;8.33;8.33;;;;;;;;5060624;28;46298;-84
2023/09/05 13:09:12;;;;;;;;;7.00;7.00;;;;;;;;5069113;28;45319;-83
2023/09/05 13:11:39;;;;;;;;;8.33;8.00;;;;;;;;5070686;28;45423;-83
2023/09/05 13:14:04;;;;;;;;;7.75;7.75;;;;;;;;5061131;28;45532;-85
2023/09/05 13:16:29;;;;;;;;;8.00;8.00;;;;;;;;5069856;28;47325;-86
2023/09/05 13:18:54;;;;;;;;;8.25;7.75;;;;;;;;5062941;28;45431;-82
2023/09/05 13:21:20;;;;;;;;;7.00;7.00;;;;;;;;5081111;28;45325;-80
2023/09/05 13:23:45;;;;;;;;;8.00;8.00;;;;;;;;5081903;28;45402;-84
2023/09/05 13:26:10;;;;;;;;;8.00;8.00;;;;;;;;5081214;28;46160;-85
2023/09/05 13:28:35;;;;;;;;;8.50;8.25;;;;;;;;5084125;27;45261;-84
2023/09/05 13:31:00;;;;;;;;;7.00;7.00;;;;;;;;5099396;27;45321;-86
2023/09/05 13:33:25;;;;;;;;;7.25;7.25;;;;;;;;5074737;28;45272;-86
2023/09/05 13:35:51;;;;;;;;;8.00;8.00;;;;;;;;5062960;28;47212;-86
2023/09/05 13:38:16;;;;;;;;;8.25;8.25;;;;;;;;5083042;28;45882;-84
2023/09/05 13:40:41;;;;;;;;;8.25;6.25;;;;;;;;5071283;28;45466;-85
2023/09/05 13:43:06;;;;;;;;;6.75;6.75;;;;;;;;5044408;28;47379;-87
2023/09/05 13:45:31;;;;;;;;;10.00;10.00;;;;;;;;5084008;28;45519;-83
2023/09/05 13:47:57;;;;;;;;;27.00;24.00;;;;;;;;5083631;28;45322;-84
2023/09/05 13:50:23;;;;;;;;;24.00;23.33;;;;;;;;5084174;28;45276;-84
2023/09/05 13:52:48;;;;;;;;;10.75;9.00;;;;;;;;5066407;28;46170;-84
2023/09/05 13:55:14;;;;;;;;;8.50;8.50;;;;;;;;5083937;28;45383;-82
2023/09/05 13:57:39;;;;;;;;;7.75;7.75;;;;;;;;5070622;28;45505;-84
2023/09/05 14:00:05;;;;;;;;;8.00;8.00;;;;;;;;5063413;28;45316;-86
2023/09/05 14:02:32;;;;;;;;;6.00;5.75;;;;;;;;5082126;28;45239;-87
2023/09/05 14:04:58;;;;;;;;;7.00;7.00;;;;;;;;5079288;28;46081;-90
2023/09/05 14:07:25;;;;;;;;;6.00;6.00;;;;;;;;5072217;28;45557;-88
2023/09/05 14:09:50;;;;;;;;;7.50;6.50;;;;;;;;5051855;28;45466;-87
2023/09/05 14:12:18;;;;;;;;;7.25;7.25;;;;;;;;5056281;28;45891;-86
2023/09/05 14:14:44;;;;;;;;;8.00;8.00;;;;;;;;5063411;28;48076;-87
2023/09/05 14:17:09;;;;;;;;;7.75;6.75;;;;;;;;5080896;28;45345;-85
2023/09/05 14:19:34;;;;;;;;;10.00;10.00;;;;;;;;5063777;28;45292;-85
2023/09/05 14:21:59;;;;;;;;;5.50;5.50;;;;;;;;5082903;28;45300;-85
2023/09/05 14:24:24;;;;;;;;;7.00;7.00;;;;;;;;5080614;28;45375;-86
2023/09/05 14:26:50;;;;;;;;;8.00;8.00;;;;;;;;5063088;28;45930;-88
2023/09/05 14:29:15;;;;;;;;;5.67;5.67;;;;;;;;5089402;27;45394;-83
2023/09/05 14:31:41;;;;;;;;;8.00;7.67;;;;;;;;5065721;27;45645;-85